createdAt,value
2019-03-01T00:01:34.826Z,2.83
2019-03-01T00:04:06.434Z,2.50
2019-03-01T00:06:49.713Z,3.30
2019-03-01T00:09:36.210Z,2.77
2019-03-01T00:12:27.110Z,3.20
2019-03-01T00:15:19.529Z,3.10
2019-03-01T00:18:20.994Z,2.85
2019-03-01T00:21:13.355Z,2.72
2019-03-01T00:23:59.747Z,2.92
2019-03-01T00:26:42.847Z,2.77
2019-03-01T00:29:19.847Z,2.98
2019-03-01T00:32:09.217Z,3.10
2019-03-01T00:34:58.878Z,3.08
2019-03-01T00:37:42.195Z,2.92
2019-03-01T00:40:33.214Z,2.80
2019-03-01T00:43:06.346Z,3.37
2019-03-01T00:45:34.666Z,2.65
2019-03-01T00:48:02.952Z,2.85
2019-03-01T00:50:31.202Z,3.00
2019-03-01T00:52:59.464Z,3.40
2019-03-01T00:55:27.685Z,2.83
2019-03-01T00:57:55.960Z,3.33
2019-03-01T01:00:33.153Z,3.22
2019-03-01T01:03:01.418Z,3.05
2019-03-01T01:05:29.688Z,3.12
2019-03-01T01:07:57.975Z,3.00
2019-03-01T01:10:26.233Z,2.92
2019-03-01T01:12:54.523Z,3.20
2019-03-01T01:15:22.798Z,3.30
2019-03-01T01:17:51.070Z,2.85
2019-03-01T01:20:19.344Z,2.80
2019-03-01T01:22:47.621Z,3.02
2019-03-01T01:25:15.896Z,2.80
2019-03-01T01:27:44.698Z,2.80
2019-03-01T01:30:14.089Z,2.90
2019-03-01T01:32:42.306Z,3.30
2019-03-01T01:35:10.537Z,3.02
2019-03-01T01:37:38.749Z,3.27
2019-03-01T01:40:09.410Z,3.25
2019-03-01T01:42:37.682Z,3.30
2019-03-01T01:45:08.642Z,3.10
2019-03-01T01:47:36.870Z,3.42
2019-03-01T01:50:07.736Z,3.12
2019-03-01T01:52:35.954Z,2.92
2019-03-01T01:55:05.610Z,2.60
2019-03-01T01:57:33.990Z,3.15
2019-03-01T02:00:02.221Z,2.80
2019-03-01T02:02:32.062Z,3.10
2019-03-01T02:05:00.366Z,3.40
2019-03-01T02:07:28.682Z,2.87
2019-03-01T02:09:56.914Z,2.83
2019-03-01T02:12:25.128Z,2.75
2019-03-01T02:14:53.353Z,3.12
2019-03-01T02:17:21.569Z,3.30
2019-03-01T02:19:49.785Z,2.87
2019-03-01T02:22:18.034Z,2.95
2019-03-01T02:24:46.245Z,2.80
2019-03-01T02:27:22.168Z,2.85
2019-03-01T02:29:50.420Z,2.90
2019-03-01T02:32:37.360Z,3.05
2019-03-01T02:35:08.818Z,2.87
2019-03-01T02:37:37.030Z,2.83
2019-03-01T02:40:07.749Z,2.92
2019-03-01T02:42:35.970Z,2.42
2019-03-01T02:45:06.941Z,3.05
2019-03-01T02:47:35.157Z,2.87
2019-03-01T02:50:04.714Z,2.95
2019-03-01T02:52:32.938Z,2.87
2019-03-01T02:55:01.161Z,3.17
2019-03-01T02:57:29.394Z,2.92
2019-03-01T02:59:57.609Z,2.90
2019-03-01T03:02:25.818Z,3.00
2019-03-01T03:04:54.048Z,2.90
2019-03-01T03:07:26.616Z,2.85
2019-03-01T03:09:54.910Z,3.15
2019-03-01T03:12:23.132Z,10.90
2019-03-01T03:14:51.363Z,8.70
2019-03-01T03:17:19.600Z,6.37
2019-03-01T03:19:47.810Z,6.67
2019-03-01T03:22:16.035Z,6.62
2019-03-01T03:24:44.253Z,6.25
2019-03-01T03:27:12.481Z,6.95
2019-03-01T03:29:40.706Z,6.53
2019-03-01T03:32:08.939Z,5.75
2019-03-01T03:34:37.247Z,5.95
2019-03-01T03:37:05.582Z,5.92
2019-03-01T03:39:33.805Z,6.45
2019-03-01T03:42:02.325Z,6.92
2019-03-01T03:44:30.554Z,6.33
2019-03-01T03:46:58.799Z,24.45
2019-03-01T03:49:27.447Z,24.27
2019-03-01T03:51:55.668Z,21.37
2019-03-01T03:54:23.903Z,21.45
2019-03-01T03:56:52.131Z,20.40
2019-03-01T03:59:20.359Z,18.82
2019-03-01T04:01:48.578Z,18.15
2019-03-01T04:04:16.815Z,17.82
2019-03-01T04:06:45.037Z,18.45
2019-03-01T04:09:13.277Z,18.52
2019-03-01T04:11:41.522Z,17.90
2019-03-01T04:14:09.739Z,18.60
2019-03-01T04:16:37.962Z,17.23
2019-03-01T04:19:06.200Z,17.48
2019-03-01T04:21:34.419Z,17.65
2019-03-01T04:24:02.653Z,17.92
2019-03-01T04:26:30.881Z,16.67
2019-03-01T04:28:59.102Z,16.62
2019-03-01T04:31:27.334Z,16.15
2019-03-01T04:33:55.555Z,17.17
2019-03-01T04:36:23.794Z,15.93
2019-03-01T04:38:52.026Z,16.60
2019-03-01T04:41:20.246Z,15.32
2019-03-01T04:43:48.479Z,16.05
2019-03-01T04:46:16.703Z,16.97
2019-03-01T04:48:45.106Z,16.00
2019-03-01T04:51:13.327Z,15.58
2019-03-01T04:53:41.559Z,15.28
2019-03-01T04:56:09.783Z,15.72
2019-03-01T04:58:37.999Z,15.15
2019-03-01T05:01:06.234Z,15.48
2019-03-01T05:03:34.454Z,15.05
2019-03-01T05:06:02.692Z,14.45
2019-03-01T05:08:30.906Z,14.10
2019-03-01T05:10:59.138Z,14.10
2019-03-01T05:13:27.358Z,13.80
2019-03-01T05:15:55.596Z,14.58
2019-03-01T05:18:23.810Z,12.82
2019-03-01T05:20:52.029Z,13.58
2019-03-01T05:23:20.262Z,13.72
2019-03-01T05:25:48.481Z,13.45
2019-03-01T05:28:16.718Z,13.68
2019-03-01T05:30:44.943Z,14.38
2019-03-01T05:33:13.174Z,13.00
2019-03-01T05:35:41.393Z,13.00
2019-03-01T05:38:09.634Z,11.88
2019-03-01T05:40:37.858Z,13.75
2019-03-01T05:43:06.098Z,13.50
2019-03-01T05:45:34.314Z,12.07
2019-03-01T05:48:02.567Z,12.55
2019-03-01T05:50:30.790Z,12.63
2019-03-01T05:52:59.014Z,11.80
2019-03-01T05:55:27.250Z,11.97
2019-03-01T05:58:21.414Z,12.45
2019-03-01T06:00:50.845Z,11.20
2019-03-01T06:03:51.172Z,11.70
2019-03-01T06:06:22.662Z,11.88
2019-03-01T06:08:59.869Z,12.05
2019-03-01T06:11:34.259Z,10.82
2019-03-01T06:14:26.938Z,12.37
2019-03-01T06:17:30.192Z,11.25
2019-03-01T06:20:10.301Z,10.60
2019-03-01T06:22:44.251Z,10.13
2019-03-01T06:25:18.963Z,10.13
2019-03-01T06:28:13.267Z,9.25
2019-03-01T06:30:51.678Z,8.55
2019-03-01T06:33:49.938Z,8.60
2019-03-01T06:36:46.925Z,9.23
2019-03-01T06:39:31.957Z,8.83
2019-03-01T06:42:04.410Z,9.38
2019-03-01T06:44:38.446Z,8.83
2019-03-01T06:47:21.490Z,9.48
2019-03-01T06:49:57.226Z,8.15
2019-03-01T06:52:25.450Z,8.53
2019-03-01T06:54:53.697Z,8.38
2019-03-01T06:57:21.919Z,8.35
2019-03-01T06:59:50.137Z,8.73
2019-03-01T07:02:22.606Z,8.78
2019-03-01T07:04:50.834Z,8.75
2019-03-01T07:07:19.049Z,8.48
2019-03-01T07:09:47.271Z,8.10
2019-03-01T07:12:15.502Z,8.20
2019-03-01T07:14:43.722Z,7.85
2019-03-01T07:17:11.946Z,8.03
2019-03-01T07:19:40.178Z,7.80
2019-03-01T07:22:08.507Z,8.13
2019-03-01T07:24:36.798Z,7.97
2019-03-01T07:27:05.012Z,7.75
2019-03-01T07:29:33.230Z,7.45
2019-03-01T07:32:01.463Z,6.97
2019-03-01T07:34:29.689Z,7.47
2019-03-01T07:36:57.914Z,7.65
2019-03-01T07:39:26.135Z,7.40
2019-03-01T07:41:54.383Z,7.83
2019-03-01T07:44:22.602Z,7.12
2019-03-01T07:46:53.276Z,6.75
2019-03-01T07:49:20.782Z,6.60
2019-03-01T07:51:48.994Z,6.00
2019-03-01T07:54:18.085Z,6.70
2019-03-01T07:56:46.426Z,6.42
2019-03-01T07:59:14.658Z,6.45
2019-03-01T08:01:42.878Z,6.85
2019-03-01T08:04:11.126Z,6.33
2019-03-01T08:06:39.331Z,5.97
2019-03-01T08:09:12.365Z,5.78
2019-03-01T08:14:10.164Z,5.17
2019-03-01T08:16:38.134Z,4.37
2019-03-01T08:19:06.372Z,4.65
2019-03-01T08:21:34.582Z,4.22
2019-03-01T08:24:02.824Z,3.90
2019-03-01T08:26:34.090Z,4.00
2019-03-01T08:29:00.974Z,3.33
2019-03-01T08:31:29.198Z,3.00
2019-03-01T08:33:58.839Z,3.20
2019-03-01T08:36:27.018Z,2.75
2019-03-01T08:38:55.245Z,2.72
2019-03-01T08:41:25.031Z,2.37
2019-03-01T08:43:53.405Z,2.52
2019-03-01T08:46:21.638Z,2.87
2019-03-01T08:48:49.851Z,2.30
2019-03-01T08:51:18.366Z,2.12
2019-03-01T08:53:48.258Z,1.82
2019-03-01T08:56:16.514Z,2.02
2019-03-01T08:58:44.738Z,1.67
2019-03-01T09:01:21.862Z,1.40
2019-03-01T09:03:56.064Z,1.42
2019-03-01T09:06:24.282Z,1.27
2019-03-01T09:08:52.511Z,1.22
2019-03-01T09:11:20.733Z,1.25
2019-03-01T09:13:49.011Z,1.05
2019-03-01T09:16:17.250Z,1.10
2019-03-01T09:18:46.673Z,1.40
2019-03-01T09:21:15.418Z,1.25
2019-03-01T09:23:43.651Z,1.00
2019-03-01T09:26:11.865Z,1.10
2019-03-01T09:28:40.080Z,1.00
2019-03-01T09:31:08.306Z,0.90
2019-03-01T09:33:36.527Z,1.22
2019-03-01T09:36:06.390Z,1.07
2019-03-01T09:38:34.603Z,1.10
2019-03-01T09:41:04.672Z,0.60
2019-03-01T09:43:32.786Z,1.00
2019-03-01T09:46:00.994Z,0.82
2019-03-01T09:48:29.206Z,0.85
2019-03-01T09:50:57.430Z,0.80
2019-03-01T09:53:25.646Z,0.90
2019-03-01T09:55:53.869Z,0.88
2019-03-01T09:58:22.114Z,0.60
2019-03-01T10:00:56.643Z,0.70
2019-03-01T10:03:23.594Z,0.70
2019-03-01T10:05:51.823Z,0.70
2019-03-01T10:08:20.037Z,0.70
2019-03-01T10:10:48.261Z,0.60
2019-03-01T10:13:16.486Z,0.57
2019-03-01T10:15:44.697Z,0.70
2019-03-01T10:18:12.927Z,0.53
2019-03-01T10:20:41.156Z,0.70
2019-03-01T10:23:09.382Z,0.62
2019-03-01T10:25:37.602Z,0.47
2019-03-01T10:28:05.826Z,0.50
2019-03-01T10:30:34.038Z,0.50
2019-03-01T10:33:02.249Z,0.50
2019-03-01T10:35:30.473Z,0.60
2019-03-01T10:37:58.706Z,0.35
2019-03-01T10:40:27.790Z,0.33
2019-03-01T10:42:56.004Z,0.50
2019-03-01T10:45:28.770Z,0.40
2019-03-01T10:47:56.993Z,0.40
2019-03-01T10:50:25.206Z,0.25
2019-03-01T10:52:53.425Z,0.30
2019-03-01T10:55:21.918Z,0.50
2019-03-01T10:57:50.138Z,0.55
2019-03-01T11:00:30.982Z,0.28
2019-03-01T11:02:59.198Z,0.40
2019-03-01T11:05:27.560Z,0.50
2019-03-01T11:07:56.593Z,0.40
2019-03-01T11:10:30.185Z,0.80
2019-03-01T11:12:58.471Z,0.50
2019-03-01T11:15:26.682Z,0.40
2019-03-01T11:17:54.907Z,0.40
2019-03-01T11:20:23.711Z,0.80
2019-03-01T11:22:51.926Z,1.70
2019-03-01T11:25:22.286Z,2.50
2019-03-01T11:27:50.499Z,3.95
2019-03-01T11:30:27.271Z,4.25
2019-03-01T11:32:55.491Z,4.62
2019-03-01T11:35:23.719Z,5.28
2019-03-01T11:37:51.951Z,4.70
2019-03-01T11:40:29.318Z,5.60
2019-03-01T11:42:57.550Z,5.75
2019-03-01T11:45:25.777Z,6.08
2019-03-01T11:47:54.007Z,6.70
2019-03-01T11:50:23.566Z,6.15
2019-03-01T11:52:51.777Z,8.08
2019-03-01T11:55:20.015Z,7.37
2019-03-01T11:57:48.237Z,8.00
2019-03-01T12:00:20.790Z,7.20
2019-03-01T12:02:49.362Z,8.85
2019-03-01T12:05:17.917Z,8.78
2019-03-01T12:07:46.157Z,9.58
2019-03-01T12:10:17.166Z,9.70
2019-03-01T12:12:45.393Z,9.80
2019-03-01T12:15:13.762Z,10.43
2019-03-01T12:17:41.982Z,11.55
2019-03-01T12:20:12.554Z,11.75
2019-03-01T12:22:40.789Z,13.00
2019-03-01T12:25:10.490Z,13.85
2019-03-01T12:27:38.747Z,13.35
2019-03-01T12:30:13.120Z,11.90
2019-03-01T12:32:41.342Z,13.60
2019-03-01T12:35:10.214Z,13.48
2019-03-01T12:37:38.434Z,13.68
2019-03-01T12:40:17.998Z,13.35
2019-03-01T12:42:46.221Z,14.20
2019-03-01T12:45:15.378Z,13.43
2019-03-01T12:47:43.609Z,16.15
2019-03-01T12:50:15.601Z,16.00
2019-03-01T12:52:43.830Z,15.70
2019-03-01T12:55:20.469Z,15.60
2019-03-01T12:57:48.704Z,15.93
2019-03-01T13:00:20.178Z,15.43
2019-03-01T13:02:48.409Z,16.90
2019-03-01T13:05:16.648Z,16.48
2019-03-01T13:07:44.903Z,15.38
2019-03-01T13:10:21.973Z,17.65
2019-03-01T13:12:50.254Z,16.02
2019-03-01T13:15:18.485Z,16.97
2019-03-01T13:17:46.710Z,17.27
2019-03-01T13:20:18.985Z,18.70
2019-03-01T13:22:47.222Z,17.67
2019-03-01T13:25:15.759Z,18.17
2019-03-01T13:27:44.042Z,18.10
2019-03-01T13:30:15.274Z,17.35
2019-03-01T13:32:43.494Z,17.37
2019-03-01T13:35:16.768Z,18.02
2019-03-01T13:37:44.991Z,18.98
2019-03-01T13:40:15.451Z,18.15
2019-03-01T13:42:43.687Z,17.57
2019-03-01T13:45:19.058Z,18.67
2019-03-01T13:47:47.273Z,19.62
2019-03-01T13:50:18.069Z,18.65
2019-03-01T13:52:46.302Z,20.50
2019-03-01T13:55:15.171Z,20.37
2019-03-01T13:57:45.919Z,20.30
2019-03-01T14:00:20.813Z,19.32
2019-03-01T14:02:49.031Z,19.87
2019-03-01T14:05:17.482Z,21.40
2019-03-01T14:07:46.243Z,20.25
2019-03-01T14:10:28.845Z,20.45
2019-03-01T14:12:57.079Z,22.00
2019-03-01T14:15:25.298Z,21.68
2019-03-01T14:17:53.526Z,21.73
2019-03-01T14:20:22.130Z,21.50
2019-03-01T14:22:50.366Z,22.93
2019-03-01T14:25:18.596Z,21.73
2019-03-01T14:27:46.810Z,21.48
2019-03-01T14:30:17.641Z,20.10
2019-03-01T14:32:45.862Z,21.30
2019-03-01T14:35:14.266Z,20.75
2019-03-01T14:37:42.492Z,20.65
2019-03-01T14:40:12.750Z,20.85
2019-03-01T14:42:46.419Z,19.87
2019-03-01T14:45:13.922Z,21.05
2019-03-01T14:47:42.146Z,19.77
2019-03-01T14:50:16.032Z,21.07
2019-03-01T14:52:44.255Z,21.60
2019-03-01T14:55:19.780Z,20.20
2019-03-01T14:57:54.554Z,20.68
2019-03-01T15:00:26.127Z,18.75
2019-03-01T15:03:17.570Z,19.20
2019-03-01T15:05:45.894Z,18.32
2019-03-01T15:08:14.118Z,17.77
2019-03-01T15:10:42.344Z,17.80
2019-03-01T15:13:10.574Z,17.95
2019-03-01T15:15:38.796Z,16.77
2019-03-01T15:18:07.018Z,17.90
2019-03-01T15:20:35.254Z,18.77
2019-03-01T15:23:03.475Z,17.65
2019-03-01T15:25:31.706Z,17.23
2019-03-01T15:27:59.934Z,17.87
2019-03-01T15:30:28.166Z,17.32
2019-03-01T15:32:56.390Z,17.52
2019-03-01T15:35:24.616Z,17.73
2019-03-01T15:37:52.851Z,17.87
2019-03-01T15:40:21.075Z,17.17
2019-03-01T15:42:51.497Z,16.85
2019-03-01T15:45:19.258Z,16.50
2019-03-01T15:47:47.490Z,16.40
2019-03-01T15:50:15.722Z,16.15
2019-03-01T15:52:45.575Z,16.75
2019-03-01T15:55:13.910Z,15.30
2019-03-01T15:57:42.130Z,16.77
2019-03-01T16:00:17.882Z,15.55
2019-03-01T16:02:46.105Z,15.18
2019-03-01T16:05:15.005Z,15.95
2019-03-01T16:07:43.227Z,15.40
2019-03-01T16:10:16.106Z,15.48
2019-03-01T16:12:44.330Z,15.80
2019-03-01T16:15:16.178Z,14.78
2019-03-01T16:17:44.405Z,15.60
2019-03-01T16:20:17.362Z,14.33
2019-03-01T16:25:17.243Z,12.90
2019-03-01T16:27:45.319Z,12.78
2019-03-01T16:30:18.566Z,12.43
2019-03-01T16:32:50.537Z,11.75
2019-03-01T16:35:17.593Z,10.65
2019-03-01T16:37:57.965Z,11.48
2019-03-01T16:40:26.740Z,12.25
2019-03-01T16:42:54.961Z,10.70
2019-03-01T16:45:23.216Z,11.10
2019-03-01T16:47:51.445Z,10.43
2019-03-01T16:50:20.406Z,11.03
2019-03-01T16:52:48.639Z,11.25
2019-03-01T16:55:18.702Z,10.55
2019-03-01T16:57:48.665Z,11.12
2019-03-01T17:00:24.089Z,9.90
2019-03-01T17:03:07.338Z,9.80
2019-03-01T17:08:05.893Z,10.25
2019-03-01T17:10:34.677Z,10.35
2019-03-01T17:13:02.897Z,10.65
2019-03-01T17:15:31.205Z,10.38
2019-03-01T17:17:59.434Z,10.15
2019-03-01T17:20:27.662Z,10.08
2019-03-01T17:22:55.893Z,10.18
2019-03-01T17:25:26.829Z,9.35
2019-03-01T17:27:54.122Z,10.58
2019-03-01T17:30:25.886Z,10.88
2019-03-01T17:32:54.118Z,10.80
2019-03-01T17:35:22.341Z,11.35
2019-03-01T17:37:50.565Z,11.35
2019-03-01T17:40:19.154Z,11.48
2019-03-01T17:42:47.362Z,13.13
2019-03-01T17:45:23.603Z,20.45
2019-03-01T17:47:51.990Z,44.85
2019-03-01T17:50:20.226Z,66.67
2019-03-01T17:52:48.445Z,81.32
2019-03-01T17:55:24.717Z,75.65
2019-03-01T17:57:53.252Z,60.43
2019-03-01T18:00:26.712Z,52.60
2019-03-01T18:02:55.018Z,48.65
2019-03-01T18:05:23.257Z,48.13
2019-03-01T18:07:51.477Z,46.58
2019-03-01T18:10:19.714Z,45.83
2019-03-01T18:12:47.937Z,46.28
2019-03-01T18:15:16.902Z,45.67
2019-03-01T18:17:45.143Z,44.50
2019-03-01T18:20:14.007Z,43.65
2019-03-01T18:22:42.310Z,44.18
2019-03-01T18:25:12.934Z,43.55
2019-03-01T18:27:41.178Z,44.03
2019-03-01T18:30:20.933Z,41.33
2019-03-01T18:33:02.606Z,41.83
2019-03-01T18:35:39.840Z,41.95
2019-03-01T18:38:14.211Z,40.48
2019-03-01T18:40:52.608Z,40.73
2019-03-01T18:43:37.004Z,40.30
2019-03-01T18:46:14.659Z,39.42
2019-03-01T18:48:44.729Z,40.23
2019-03-01T18:51:18.763Z,37.65
2019-03-01T18:54:00.644Z,37.60
2019-03-01T18:56:30.628Z,37.10
2019-03-01T18:59:06.660Z,37.10
2019-03-01T19:01:46.416Z,34.38
2019-03-01T19:04:29.761Z,32.95
2019-03-01T19:06:59.601Z,31.10
2019-03-01T19:09:39.156Z,30.05
2019-03-01T19:12:25.337Z,31.42
2019-03-01T19:15:03.149Z,31.05
2019-03-01T19:17:40.615Z,29.72
2019-03-01T19:20:12.899Z,29.37
2019-03-01T19:22:50.700Z,29.77
2019-03-01T19:25:25.144Z,29.48
2019-03-01T19:28:06.017Z,29.57
2019-03-01T19:30:40.329Z,27.93
2019-03-01T19:33:17.465Z,28.23
2019-03-01T19:35:52.571Z,27.75
2019-03-01T19:38:27.686Z,28.83
2019-03-01T19:41:27.821Z,26.70
2019-03-01T19:44:18.304Z,25.55
2019-03-01T19:46:58.445Z,26.27
2019-03-01T19:49:41.879Z,25.80
2019-03-01T19:52:17.509Z,24.67
2019-03-01T19:54:51.288Z,25.40
2019-03-01T19:57:29.946Z,25.05
2019-03-01T20:00:07.429Z,23.87
2019-03-01T20:02:59.270Z,25.23
2019-03-01T20:05:50.444Z,24.20
2019-03-01T20:08:21.455Z,25.40
2019-03-01T20:10:53.333Z,23.77
2019-03-01T20:13:38.346Z,23.27
2019-03-01T20:16:08.796Z,24.90
2019-03-01T20:18:41.816Z,23.27
2019-03-01T20:21:15.465Z,24.07
